sensor_id;sensor_type;location;lat;lon;timestamp;P1;durP1;ratioP1;P2;durP2;ratioP2
55362;SDS011;41244;49.242;9.060;2022-09-12T00:00:00;14.38;;;11.70;;
55362;SDS011;41244;49.242;9.060;2022-09-12T00:02:27;13.32;;;11.93;;
55362;SDS011;41244;49.242;9.060;2022-09-12T00:04:53;11.25;;;10.15;;
55362;SDS011;41244;49.242;9.060;2022-09-12T00:07:19;11.82;;;10.20;;
55362;SDS011;41244;49.242;9.060;2022-09-12T00:09:44;11.15;;;10.05;;
55362;SDS011;41244;49.242;9.060;2022-09-12T00:12:10;12.38;;;11.18;;
55362;SDS011;41244;49.242;9.060;2022-09-12T00:14:36;12.85;;;11.27;;
55362;SDS011;41244;49.242;9.060;2022-09-12T00:17:02;12.80;;;11.50;;
55362;SDS011;41244;49.242;9.060;2022-09-12T00:19:28;12.57;;;10.48;;
55362;SDS011;41244;49.242;9.060;2022-09-12T00:21:54;11.77;;;10.55;;
55362;SDS011;41244;49.242;9.060;2022-09-12T00:24:20;16.92;;;11.23;;
55362;SDS011;41244;49.242;9.060;2022-09-12T00:26:46;11.45;;;10.25;;
55362;SDS011;41244;49.242;9.060;2022-09-12T00:29:14;11.88;;;10.55;;
55362;SDS011;41244;49.242;9.060;2022-09-12T00:31:42;12.07;;;10.82;;
55362;SDS011;41244;49.242;9.060;2022-09-12T00:34:08;12.85;;;11.18;;
55362;SDS011;41244;49.242;9.060;2022-09-12T00:36:34;11.88;;;10.38;;
55362;SDS011;41244;49.242;9.060;2022-09-12T00:39:00;11.48;;;10.27;;
55362;SDS011;41244;49.242;9.060;2022-09-12T00:41:29;11.38;;;10.18;;
55362;SDS011;41244;49.242;9.060;2022-09-12T00:44:02;13.27;;;10.32;;
55362;SDS011;41244;49.242;9.060;2022-09-12T00:49:46;12.25;;;11.05;;
55362;SDS011;41244;49.242;9.060;2022-09-12T00:52:24;11.27;;;10.07;;
55362;SDS011;41244;49.242;9.060;2022-09-12T00:57:31;11.88;;;10.68;;
55362;SDS011;41244;49.242;9.060;2022-09-12T01:00:11;12.65;;;10.98;;
55362;SDS011;41244;49.242;9.060;2022-09-12T01:02:44;12.02;;;10.18;;
55362;SDS011;41244;49.242;9.060;2022-09-12T01:05:16;11.75;;;10.55;;
55362;SDS011;41244;49.242;9.060;2022-09-12T01:07:42;12.73;;;11.32;;
55362;SDS011;41244;49.242;9.060;2022-09-12T01:10:09;11.52;;;10.40;;
55362;SDS011;41244;49.242;9.060;2022-09-12T01:12:36;13.20;;;11.70;;
55362;SDS011;41244;49.242;9.060;2022-09-12T01:15:04;11.32;;;10.13;;
55362;SDS011;41244;49.242;9.060;2022-09-12T01:17:33;11.57;;;9.98;;
55362;SDS011;41244;49.242;9.060;2022-09-12T01:24:27;11.85;;;10.40;;
55362;SDS011;41244;49.242;9.060;2022-09-12T01:27:11;15.27;;;11.68;;
55362;SDS011;41244;49.242;9.060;2022-09-12T01:30:16;11.95;;;10.70;;
55362;SDS011;41244;49.242;9.060;2022-09-12T01:44:54;13.05;;;11.75;;
55362;SDS011;41244;49.242;9.060;2022-09-12T01:47:39;12.20;;;11.00;;
55362;SDS011;41244;49.242;9.060;2022-09-12T01:53:05;12.50;;;11.20;;
55362;SDS011;41244;49.242;9.060;2022-09-12T01:55:51;12.52;;;10.23;;
55362;SDS011;41244;49.242;9.060;2022-09-12T01:58:56;15.30;;;11.52;;
55362;SDS011;41244;49.242;9.060;2022-09-12T02:01:52;13.15;;;10.98;;
55362;SDS011;41244;49.242;9.060;2022-09-12T02:04:30;15.13;;;11.20;;
55362;SDS011;41244;49.242;9.060;2022-09-12T02:07:19;13.18;;;11.65;;
55362;SDS011;41244;49.242;9.060;2022-09-12T02:12:45;12.77;;;10.32;;
55362;SDS011;41244;49.242;9.060;2022-09-12T02:15:44;11.43;;;9.88;;
55362;SDS011;41244;49.242;9.060;2022-09-12T02:18:16;17.15;;;11.15;;
55362;SDS011;41244;49.242;9.060;2022-09-12T02:20:43;11.88;;;10.70;;
55362;SDS011;41244;49.242;9.060;2022-09-12T02:23:12;13.63;;;11.52;;
55362;SDS011;41244;49.242;9.060;2022-09-12T02:25:43;13.68;;;10.35;;
55362;SDS011;41244;49.242;9.060;2022-09-12T02:28:12;12.60;;;10.73;;
55362;SDS011;41244;49.242;9.060;2022-09-12T02:30:49;11.60;;;10.23;;
55362;SDS011;41244;49.242;9.060;2022-09-12T02:39:39;11.48;;;10.20;;
55362;SDS011;41244;49.242;9.060;2022-09-12T02:42:05;13.02;;;10.95;;
55362;SDS011;41244;49.242;9.060;2022-09-12T02:44:31;11.93;;;10.73;;
55362;SDS011;41244;49.242;9.060;2022-09-12T02:47:18;11.70;;;10.50;;
55362;SDS011;41244;49.242;9.060;2022-09-12T02:49:49;12.50;;;10.35;;
55362;SDS011;41244;49.242;9.060;2022-09-12T02:52:16;12.70;;;11.23;;
55362;SDS011;41244;49.242;9.060;2022-09-12T02:54:42;12.50;;;10.75;;
55362;SDS011;41244;49.242;9.060;2022-09-12T02:57:15;11.15;;;9.95;;
55362;SDS011;41244;49.242;9.060;2022-09-12T02:59:43;10.95;;;9.85;;
55362;SDS011;41244;49.242;9.060;2022-09-12T03:02:15;12.20;;;10.35;;
55362;SDS011;41244;49.242;9.060;2022-09-12T03:17:41;11.95;;;10.60;;
55362;SDS011;41244;49.242;9.060;2022-09-12T03:20:52;11.30;;;10.13;;
55362;SDS011;41244;49.242;9.060;2022-09-12T03:26:54;10.95;;;9.85;;
55362;SDS011;41244;49.242;9.060;2022-09-12T03:29:33;10.88;;;9.77;;
55362;SDS011;41244;49.242;9.060;2022-09-12T03:32:01;11.15;;;10.05;;
55362;SDS011;41244;49.242;9.060;2022-09-12T03:34:27;14.00;;;10.43;;
55362;SDS011;41244;49.242;9.060;2022-09-12T03:36:53;11.20;;;9.93;;
55362;SDS011;41244;49.242;9.060;2022-09-12T03:39:19;13.30;;;10.70;;
55362;SDS011;41244;49.242;9.060;2022-09-12T03:41:48;10.55;;;9.38;;
55362;SDS011;41244;49.242;9.060;2022-09-12T03:44:15;11.65;;;10.45;;
55362;SDS011;41244;49.242;9.060;2022-09-12T03:46:41;11.10;;;9.50;;
55362;SDS011;41244;49.242;9.060;2022-09-12T03:49:07;10.80;;;9.20;;
55362;SDS011;41244;49.242;9.060;2022-09-12T03:51:34;10.95;;;9.85;;
55362;SDS011;41244;49.242;9.060;2022-09-12T03:54:01;11.35;;;10.15;;
55362;SDS011;41244;49.242;9.060;2022-09-12T03:56:27;11.10;;;9.35;;
55362;SDS011;41244;49.242;9.060;2022-09-12T03:58:53;12.38;;;10.32;;
55362;SDS011;41244;49.242;9.060;2022-09-12T04:01:19;12.35;;;10.45;;
55362;SDS011;41244;49.242;9.060;2022-09-12T04:03:46;14.43;;;10.00;;
55362;SDS011;41244;49.242;9.060;2022-09-12T04:06:17;10.65;;;9.32;;
55362;SDS011;41244;49.242;9.060;2022-09-12T04:08:52;11.75;;;10.07;;
55362;SDS011;41244;49.242;9.060;2022-09-12T04:11:19;12.10;;;10.73;;
55362;SDS011;41244;49.242;9.060;2022-09-12T04:13:46;11.82;;;10.30;;
55362;SDS011;41244;49.242;9.060;2022-09-12T04:16:13;13.02;;;10.15;;
55362;SDS011;41244;49.242;9.060;2022-09-12T04:18:39;11.30;;;10.05;;
55362;SDS011;41244;49.242;9.060;2022-09-12T04:21:10;13.43;;;10.90;;
55362;SDS011;41244;49.242;9.060;2022-09-12T04:23:41;12.88;;;11.05;;
55362;SDS011;41244;49.242;9.060;2022-09-12T04:26:08;13.52;;;10.82;;
55362;SDS011;41244;49.242;9.060;2022-09-12T04:28:34;11.80;;;10.60;;
55362;SDS011;41244;49.242;9.060;2022-09-12T04:31:06;13.38;;;10.75;;
55362;SDS011;41244;49.242;9.060;2022-09-12T04:33:42;12.38;;;10.85;;
55362;SDS011;41244;49.242;9.060;2022-09-12T04:36:10;12.00;;;10.70;;
55362;SDS011;41244;49.242;9.060;2022-09-12T04:38:40;13.10;;;10.93;;
55362;SDS011;41244;49.242;9.060;2022-09-12T04:41:29;13.00;;;10.80;;
55362;SDS011;41244;49.242;9.060;2022-09-12T04:44:02;11.30;;;10.00;;
55362;SDS011;41244;49.242;9.060;2022-09-12T04:46:31;11.48;;;10.25;;
55362;SDS011;41244;49.242;9.060;2022-09-12T04:49:02;13.20;;;11.35;;
55362;SDS011;41244;49.242;9.060;2022-09-12T04:51:30;12.05;;;10.77;;
55362;SDS011;41244;49.242;9.060;2022-09-12T04:54:02;17.15;;;10.45;;
55362;SDS011;41244;49.242;9.060;2022-09-12T04:56:30;12.60;;;10.50;;
55362;SDS011;41244;49.242;9.060;2022-09-12T04:58:59;12.18;;;9.52;;
55362;SDS011;41244;49.242;9.060;2022-09-12T05:01:25;10.52;;;9.38;;
55362;SDS011;41244;49.242;9.060;2022-09-12T05:03:53;13.35;;;9.55;;
55362;SDS011;41244;49.242;9.060;2022-09-12T05:06:21;13.30;;;10.60;;
55362;SDS011;41244;49.242;9.060;2022-09-12T05:08:54;10.85;;;9.75;;
55362;SDS011;41244;49.242;9.060;2022-09-12T05:11:22;12.75;;;10.30;;
55362;SDS011;41244;49.242;9.060;2022-09-12T05:13:50;11.88;;;9.73;;
55362;SDS011;41244;49.242;9.060;2022-09-12T05:16:17;10.88;;;9.27;;
55362;SDS011;41244;49.242;9.060;2022-09-12T05:18:44;10.20;;;9.07;;
55362;SDS011;41244;49.242;9.060;2022-09-12T05:21:12;12.70;;;9.25;;
55362;SDS011;41244;49.242;9.060;2022-09-12T05:23:39;10.35;;;9.35;;
55362;SDS011;41244;49.242;9.060;2022-09-12T05:26:06;11.02;;;9.73;;
55362;SDS011;41244;49.242;9.060;2022-09-12T05:28:33;12.95;;;9.90;;
55362;SDS011;41244;49.242;9.060;2022-09-12T05:33:34;11.73;;;9.77;;
55362;SDS011;41244;49.242;9.060;2022-09-12T05:36:02;12.32;;;9.27;;
55362;SDS011;41244;49.242;9.060;2022-09-12T05:38:29;11.20;;;9.70;;
55362;SDS011;41244;49.242;9.060;2022-09-12T05:41:01;13.77;;;10.50;;
55362;SDS011;41244;49.242;9.060;2022-09-12T05:43:36;12.05;;;9.45;;
55362;SDS011;41244;49.242;9.060;2022-09-12T05:46:04;12.35;;;10.32;;
55362;SDS011;41244;49.242;9.060;2022-09-12T05:48:33;12.48;;;9.50;;
55362;SDS011;41244;49.242;9.060;2022-09-12T05:51:07;10.88;;;9.77;;
55362;SDS011;41244;49.242;9.060;2022-09-12T05:53:39;12.75;;;9.52;;
55362;SDS011;41244;49.242;9.060;2022-09-12T05:56:12;14.85;;;12.05;;
55362;SDS011;41244;49.242;9.060;2022-09-12T05:58:54;13.38;;;11.60;;
55362;SDS011;41244;49.242;9.060;2022-09-12T06:01:28;10.20;;;8.57;;
55362;SDS011;41244;49.242;9.060;2022-09-12T06:03:55;10.68;;;9.25;;
55362;SDS011;41244;49.242;9.060;2022-09-12T06:06:25;10.48;;;9.38;;
55362;SDS011;41244;49.242;9.060;2022-09-12T06:08:52;13.18;;;9.35;;
55362;SDS011;41244;49.242;9.060;2022-09-12T06:11:21;9.95;;;8.93;;
55362;SDS011;41244;49.242;9.060;2022-09-12T06:13:52;11.90;;;10.20;;
55362;SDS011;41244;49.242;9.060;2022-09-12T06:16:21;10.13;;;9.05;;
55362;SDS011;41244;49.242;9.060;2022-09-12T06:19:14;11.05;;;9.63;;
55362;SDS011;41244;49.242;9.060;2022-09-12T06:21:45;11.38;;;9.65;;
55362;SDS011;41244;49.242;9.060;2022-09-12T06:24:13;12.18;;;9.68;;
55362;SDS011;41244;49.242;9.060;2022-09-12T06:26:40;13.30;;;11.80;;
55362;SDS011;41244;49.242;9.060;2022-09-12T06:29:08;15.50;;;13.82;;
55362;SDS011;41244;49.242;9.060;2022-09-12T06:31:35;14.35;;;12.65;;
55362;SDS011;41244;49.242;9.060;2022-09-12T06:34:05;15.25;;;13.38;;
55362;SDS011;41244;49.242;9.060;2022-09-12T06:36:33;15.88;;;13.18;;
55362;SDS011;41244;49.242;9.060;2022-09-12T06:39:04;14.93;;;13.32;;
55362;SDS011;41244;49.242;9.060;2022-09-12T06:41:41;15.98;;;14.27;;
55362;SDS011;41244;49.242;9.060;2022-09-12T06:44:08;17.65;;;14.57;;
55362;SDS011;41244;49.242;9.060;2022-09-12T06:46:43;16.40;;;12.60;;
55362;SDS011;41244;49.242;9.060;2022-09-12T06:49:09;15.27;;;13.15;;
55362;SDS011;41244;49.242;9.060;2022-09-12T06:51:35;14.23;;;12.55;;
55362;SDS011;41244;49.242;9.060;2022-09-12T06:54:01;13.60;;;12.05;;
55362;SDS011;41244;49.242;9.060;2022-09-12T06:56:28;14.00;;;12.50;;
55362;SDS011;41244;49.242;9.060;2022-09-12T06:58:56;14.35;;;12.73;;
55362;SDS011;41244;49.242;9.060;2022-09-12T07:01:24;13.35;;;11.95;;
55362;SDS011;41244;49.242;9.060;2022-09-12T07:03:58;13.23;;;11.93;;
55362;SDS011;41244;49.242;9.060;2022-09-12T07:06:28;13.50;;;12.18;;
55362;SDS011;41244;49.242;9.060;2022-09-12T07:08:59;16.20;;;12.20;;
55362;SDS011;41244;49.242;9.060;2022-09-12T07:11:28;13.15;;;11.75;;
55362;SDS011;41244;49.242;9.060;2022-09-12T07:13:57;14.40;;;12.05;;
55362;SDS011;41244;49.242;9.060;2022-09-12T07:16:24;14.23;;;12.35;;
55362;SDS011;41244;49.242;9.060;2022-09-12T07:18:51;13.65;;;11.48;;
55362;SDS011;41244;49.242;9.060;2022-09-12T07:21:25;13.93;;;12.13;;
55362;SDS011;41244;49.242;9.060;2022-09-12T07:23:51;13.05;;;11.77;;
55362;SDS011;41244;49.242;9.060;2022-09-12T07:26:19;15.57;;;11.70;;
55362;SDS011;41244;49.242;9.060;2022-09-12T07:28:48;14.55;;;13.02;;
55362;SDS011;41244;49.242;9.060;2022-09-12T07:31:17;17.05;;;13.38;;
55362;SDS011;41244;49.242;9.060;2022-09-12T07:33:44;14.68;;;12.80;;
55362;SDS011;41244;49.242;9.060;2022-09-12T07:36:11;15.13;;;13.52;;
55362;SDS011;41244;49.242;9.060;2022-09-12T07:38:39;16.88;;;13.60;;
55362;SDS011;41244;49.242;9.060;2022-09-12T07:41:18;17.73;;;14.20;;
55362;SDS011;41244;49.242;9.060;2022-09-12T07:43:47;13.80;;;12.32;;
55362;SDS011;41244;49.242;9.060;2022-09-12T07:46:17;15.93;;;14.25;;
55362;SDS011;41244;49.242;9.060;2022-09-12T07:48:43;14.40;;;13.00;;
55362;SDS011;41244;49.242;9.060;2022-09-12T07:51:10;13.55;;;12.15;;
55362;SDS011;41244;49.242;9.060;2022-09-12T07:53:37;13.88;;;12.43;;
55362;SDS011;41244;49.242;9.060;2022-09-12T07:56:05;13.02;;;10.82;;
55362;SDS011;41244;49.242;9.060;2022-09-12T07:58:34;13.98;;;12.57;;
55362;SDS011;41244;49.242;9.060;2022-09-12T08:03:41;15.05;;;12.55;;
55362;SDS011;41244;49.242;9.060;2022-09-12T08:06:09;13.02;;;11.77;;
55362;SDS011;41244;49.242;9.060;2022-09-12T08:08:40;13.30;;;12.00;;
55362;SDS011;41244;49.242;9.060;2022-09-12T08:11:08;27.20;;;20.83;;
55362;SDS011;41244;49.242;9.060;2022-09-12T08:13:37;16.25;;;14.25;;
55362;SDS011;41244;49.242;9.060;2022-09-12T08:16:05;16.27;;;14.60;;
55362;SDS011;41244;49.242;9.060;2022-09-12T08:18:35;13.27;;;11.90;;
55362;SDS011;41244;49.242;9.060;2022-09-12T08:21:02;12.93;;;11.60;;
55362;SDS011;41244;49.242;9.060;2022-09-12T08:23:54;14.68;;;11.40;;
55362;SDS011;41244;49.242;9.060;2022-09-12T08:26:22;12.93;;;11.50;;
55362;SDS011;41244;49.242;9.060;2022-09-12T08:28:48;13.48;;;12.23;;
55362;SDS011;41244;49.242;9.060;2022-09-12T08:31:16;12.55;;;11.32;;
55362;SDS011;41244;49.242;9.060;2022-09-12T08:33:44;13.30;;;11.65;;
55362;SDS011;41244;49.242;9.060;2022-09-12T08:36:11;11.82;;;10.73;;
55362;SDS011;41244;49.242;9.060;2022-09-12T08:38:41;11.30;;;10.13;;
55362;SDS011;41244;49.242;9.060;2022-09-12T08:41:13;11.65;;;10.55;;
55362;SDS011;41244;49.242;9.060;2022-09-12T08:52:40;11.95;;;9.95;;
55362;SDS011;41244;49.242;9.060;2022-09-12T08:58:12;43.30;;;28.27;;
55362;SDS011;41244;49.242;9.060;2022-09-12T09:10:11;10.32;;;9.38;;
55362;SDS011;41244;49.242;9.060;2022-09-12T09:16:12;10.55;;;9.60;;
55362;SDS011;41244;49.242;9.060;2022-09-12T09:19:14;10.37;;;9.37;;
55362;SDS011;41244;49.242;9.060;2022-09-12T09:21:49;11.98;;;9.30;;
55362;SDS011;41244;49.242;9.060;2022-09-12T09:24:27;10.30;;;9.30;;
55362;SDS011;41244;49.242;9.060;2022-09-12T09:29:59;9.43;;;8.60;;
55362;SDS011;41244;49.242;9.060;2022-09-12T09:32:27;8.80;;;7.95;;
55362;SDS011;41244;49.242;9.060;2022-09-12T09:34:57;10.18;;;8.77;;
55362;SDS011;41244;49.242;9.060;2022-09-12T09:45:21;8.88;;;8.07;;
55362;SDS011;41244;49.242;9.060;2022-09-12T09:47:53;11.00;;;8.88;;
55362;SDS011;41244;49.242;9.060;2022-09-12T09:50:35;8.60;;;7.78;;
55362;SDS011;41244;49.242;9.060;2022-09-12T09:53:02;9.05;;;8.15;;
55362;SDS011;41244;49.242;9.060;2022-09-12T09:55:32;12.85;;;8.15;;
55362;SDS011;41244;49.242;9.060;2022-09-12T09:58:04;11.70;;;9.05;;
55362;SDS011;41244;49.242;9.060;2022-09-12T10:03:00;8.38;;;6.90;;
55362;SDS011;41244;49.242;9.060;2022-09-12T10:05:29;8.45;;;7.63;;
55362;SDS011;41244;49.242;9.060;2022-09-12T10:07:56;8.77;;;7.97;;
55362;SDS011;41244;49.242;9.060;2022-09-12T10:10:22;9.10;;;8.30;;
55362;SDS011;41244;49.242;9.060;2022-09-12T10:12:49;18.10;;;9.68;;
55362;SDS011;41244;49.242;9.060;2022-09-12T10:15:22;7.95;;;7.28;;
55362;SDS011;41244;49.242;9.060;2022-09-12T10:17:53;8.95;;;7.22;;
55362;SDS011;41244;49.242;9.060;2022-09-12T10:26:09;6.72;;;5.93;;
55362;SDS011;41244;49.242;9.060;2022-09-12T10:28:38;6.00;;;5.40;;
55362;SDS011;41244;49.242;9.060;2022-09-12T10:31:08;6.80;;;6.10;;
55362;SDS011;41244;49.242;9.060;2022-09-12T10:33:46;7.18;;;6.47;;
55362;SDS011;41244;49.242;9.060;2022-09-12T10:36:17;6.53;;;5.97;;
55362;SDS011;41244;49.242;9.060;2022-09-12T10:38:47;6.93;;;6.22;;
55362;SDS011;41244;49.242;9.060;2022-09-12T10:41:21;6.45;;;5.95;;
55362;SDS011;41244;49.242;9.060;2022-09-12T10:43:48;7.55;;;6.68;;
55362;SDS011;41244;49.242;9.060;2022-09-12T10:48:39;9.52;;;7.00;;
55362;SDS011;41244;49.242;9.060;2022-09-12T10:51:11;8.23;;;7.28;;
55362;SDS011;41244;49.242;9.060;2022-09-12T10:53:48;11.07;;;9.98;;
55362;SDS011;41244;49.242;9.060;2022-09-12T10:58:53;8.48;;;7.78;;
55362;SDS011;41244;49.242;9.060;2022-09-12T11:01:45;7.95;;;7.25;;
55362;SDS011;41244;49.242;9.060;2022-09-12T11:07:18;6.18;;;5.55;;
55362;SDS011;41244;49.242;9.060;2022-09-12T11:21:48;8.10;;;5.05;;
55362;SDS011;41244;49.242;9.060;2022-09-12T11:24:27;4.78;;;4.38;;
55362;SDS011;41244;49.242;9.060;2022-09-12T11:30:00;5.45;;;4.93;;
55362;SDS011;41244;49.242;9.060;2022-09-12T11:35:47;5.47;;;4.95;;
55362;SDS011;41244;49.242;9.060;2022-09-12T11:46:39;7.70;;;4.82;;
55362;SDS011;41244;49.242;9.060;2022-09-12T11:54:34;5.57;;;4.97;;
55362;SDS011;41244;49.242;9.060;2022-09-12T12:00:14;6.18;;;5.57;;
55362;SDS011;41244;49.242;9.060;2022-09-12T12:09:14;6.47;;;4.40;;
55362;SDS011;41244;49.242;9.060;2022-09-12T12:12:02;5.97;;;5.07;;
55362;SDS011;41244;49.242;9.060;2022-09-12T12:17:14;5.22;;;4.82;;
55362;SDS011;41244;49.242;9.060;2022-09-12T12:19:45;4.65;;;4.25;;
55362;SDS011;41244;49.242;9.060;2022-09-12T12:22:21;6.45;;;4.43;;
55362;SDS011;41244;49.242;9.060;2022-09-12T12:25:03;6.35;;;4.93;;
55362;SDS011;41244;49.242;9.060;2022-09-12T12:27:46;5.30;;;4.80;;
55362;SDS011;41244;49.242;9.060;2022-09-12T12:32:58;6.28;;;4.82;;
55362;SDS011;41244;49.242;9.060;2022-09-12T12:36:00;5.47;;;4.97;;
55362;SDS011;41244;49.242;9.060;2022-09-12T12:38:32;5.38;;;4.72;;
55362;SDS011;41244;49.242;9.060;2022-09-12T12:43:58;4.72;;;4.22;;
55362;SDS011;41244;49.242;9.060;2022-09-12T12:47:21;4.97;;;4.50;;
55362;SDS011;41244;49.242;9.060;2022-09-12T12:50:00;5.10;;;4.10;;
55362;SDS011;41244;49.242;9.060;2022-09-12T12:55:33;4.90;;;4.20;;
55362;SDS011;41244;49.242;9.060;2022-09-12T12:58:30;6.25;;;4.05;;
55362;SDS011;41244;49.242;9.060;2022-09-12T13:01:05;4.65;;;4.13;;
55362;SDS011;41244;49.242;9.060;2022-09-12T13:03:45;4.60;;;4.20;;
55362;SDS011;41244;49.242;9.060;2022-09-12T13:09:03;4.53;;;4.10;;
55362;SDS011;41244;49.242;9.060;2022-09-12T13:11:59;6.88;;;5.57;;
55362;SDS011;41244;49.242;9.060;2022-09-12T13:17:39;4.32;;;3.92;;
55362;SDS011;41244;49.242;9.060;2022-09-12T13:22:47;6.13;;;3.30;;
55362;SDS011;41244;49.242;9.060;2022-09-12T13:25:20;3.70;;;3.40;;
55362;SDS011;41244;49.242;9.060;2022-09-12T13:30:35;3.55;;;3.25;;
55362;SDS011;41244;49.242;9.060;2022-09-12T13:33:07;6.70;;;3.30;;
55362;SDS011;41244;49.242;9.060;2022-09-12T13:44:06;3.60;;;3.30;;
55362;SDS011;41244;49.242;9.060;2022-09-12T13:46:35;5.30;;;3.20;;
55362;SDS011;41244;49.242;9.060;2022-09-12T13:49:04;6.25;;;3.13;;
55362;SDS011;41244;49.242;9.060;2022-09-12T13:51:52;11.77;;;3.83;;
55362;SDS011;41244;49.242;9.060;2022-09-12T13:54:41;5.07;;;3.22;;
55362;SDS011;41244;49.242;9.060;2022-09-12T13:57:25;6.65;;;3.53;;
55362;SDS011;41244;49.242;9.060;2022-09-12T14:00:02;4.30;;;3.30;;
55362;SDS011;41244;49.242;9.060;2022-09-12T14:02:48;3.60;;;3.30;;
55362;SDS011;41244;49.242;9.060;2022-09-12T14:05:34;3.75;;;3.15;;
55362;SDS011;41244;49.242;9.060;2022-09-12T14:08:04;3.22;;;2.92;;
55362;SDS011;41244;49.242;9.060;2022-09-12T14:13:00;3.10;;;2.88;;
55362;SDS011;41244;49.242;9.060;2022-09-12T14:15:30;4.97;;;3.00;;
55362;SDS011;41244;49.242;9.060;2022-09-12T14:17:59;3.20;;;3.00;;
55362;SDS011;41244;49.242;9.060;2022-09-12T14:20:31;5.00;;;2.88;;
55362;SDS011;41244;49.242;9.060;2022-09-12T14:25:52;3.30;;;3.00;;
55362;SDS011;41244;49.242;9.060;2022-09-12T14:28:20;4.10;;;3.28;;
55362;SDS011;41244;49.242;9.060;2022-09-12T14:36:24;3.10;;;2.90;;
55362;SDS011;41244;49.242;9.060;2022-09-12T14:38:55;3.42;;;3.08;;
55362;SDS011;41244;49.242;9.060;2022-09-12T14:41:26;3.10;;;2.80;;
55362;SDS011;41244;49.242;9.060;2022-09-12T14:44:04;3.60;;;2.88;;
55362;SDS011;41244;49.242;9.060;2022-09-12T14:46:39;3.55;;;3.25;;
55362;SDS011;41244;49.242;9.060;2022-09-12T14:49:12;5.60;;;3.83;;
55362;SDS011;41244;49.242;9.060;2022-09-12T14:51:51;4.40;;;3.50;;
55362;SDS011;41244;49.242;9.060;2022-09-12T14:56:53;2.70;;;2.50;;
55362;SDS011;41244;49.242;9.060;2022-09-12T14:59:44;2.90;;;2.70;;
55362;SDS011;41244;49.242;9.060;2022-09-12T15:04:51;3.15;;;2.85;;
55362;SDS011;41244;49.242;9.060;2022-09-12T15:10:04;2.95;;;2.50;;
55362;SDS011;41244;49.242;9.060;2022-09-12T15:12:48;3.03;;;2.50;;
55362;SDS011;41244;49.242;9.060;2022-09-12T15:15:18;3.60;;;2.30;;
55362;SDS011;41244;49.242;9.060;2022-09-12T15:17:45;2.45;;;2.28;;
55362;SDS011;41244;49.242;9.060;2022-09-12T15:20:11;2.88;;;2.47;;
55362;SDS011;41244;49.242;9.060;2022-09-12T15:22:38;3.00;;;2.40;;
55362;SDS011;41244;49.242;9.060;2022-09-12T15:25:05;2.45;;;2.28;;
55362;SDS011;41244;49.242;9.060;2022-09-12T15:27:31;2.88;;;2.30;;
55362;SDS011;41244;49.242;9.060;2022-09-12T15:29:57;6.00;;;4.03;;
55362;SDS011;41244;49.242;9.060;2022-09-12T15:32:27;5.20;;;4.13;;
55362;SDS011;41244;49.242;9.060;2022-09-12T15:34:53;3.33;;;3.03;;
55362;SDS011;41244;49.242;9.060;2022-09-12T15:37:20;63.58;;;37.08;;
55362;SDS011;41244;49.242;9.060;2022-09-12T15:39:48;5.60;;;3.75;;
55362;SDS011;41244;49.242;9.060;2022-09-12T15:42:14;5.22;;;3.20;;
55362;SDS011;41244;49.242;9.060;2022-09-12T15:44:41;3.78;;;3.08;;
55362;SDS011;41244;49.242;9.060;2022-09-12T15:47:13;4.40;;;3.95;;
55362;SDS011;41244;49.242;9.060;2022-09-12T15:49:39;3.53;;;3.22;;
55362;SDS011;41244;49.242;9.060;2022-09-12T15:52:06;6.00;;;2.90;;
55362;SDS011;41244;49.242;9.060;2022-09-12T15:54:33;3.22;;;2.92;;
55362;SDS011;41244;49.242;9.060;2022-09-12T15:57:00;5.28;;;3.20;;
55362;SDS011;41244;49.242;9.060;2022-09-12T15:59:25;3.03;;;2.70;;
55362;SDS011;41244;49.242;9.060;2022-09-12T16:01:51;2.53;;;2.33;;
55362;SDS011;41244;49.242;9.060;2022-09-12T16:04:21;2.40;;;2.20;;
55362;SDS011;41244;49.242;9.060;2022-09-12T16:06:47;3.05;;;2.50;;
55362;SDS011;41244;49.242;9.060;2022-09-12T16:09:14;2.45;;;2.25;;
55362;SDS011;41244;49.242;9.060;2022-09-12T16:11:40;2.65;;;2.45;;
55362;SDS011;41244;49.242;9.060;2022-09-12T16:14:06;2.95;;;2.28;;
55362;SDS011;41244;49.242;9.060;2022-09-12T16:16:32;2.45;;;2.25;;
55362;SDS011;41244;49.242;9.060;2022-09-12T16:18:58;2.58;;;2.38;;
55362;SDS011;41244;49.242;9.060;2022-09-12T16:21:24;19.67;;;3.40;;
55362;SDS011;41244;49.242;9.060;2022-09-12T16:23:50;7.05;;;3.05;;
55362;SDS011;41244;49.242;9.060;2022-09-12T16:26:16;47.55;;;29.08;;
55362;SDS011;41244;49.242;9.060;2022-09-12T16:28:42;5.00;;;3.33;;
55362;SDS011;41244;49.242;9.060;2022-09-12T16:31:09;3.53;;;3.22;;
55362;SDS011;41244;49.242;9.060;2022-09-12T16:33:37;4.25;;;3.85;;
55362;SDS011;41244;49.242;9.060;2022-09-12T16:38:38;3.92;;;3.10;;
55362;SDS011;41244;49.242;9.060;2022-09-12T16:41:05;5.05;;;3.45;;
55362;SDS011;41244;49.242;9.060;2022-09-12T16:43:32;4.32;;;3.92;;
55362;SDS011;41244;49.242;9.060;2022-09-12T16:46:03;4.88;;;3.65;;
55362;SDS011;41244;49.242;9.060;2022-09-12T16:48:30;5.07;;;3.40;;
55362;SDS011;41244;49.242;9.060;2022-09-12T16:50:57;4.88;;;3.50;;
55362;SDS011;41244;49.242;9.060;2022-09-12T16:53:27;4.03;;;3.60;;
55362;SDS011;41244;49.242;9.060;2022-09-12T16:55:55;3.63;;;3.33;;
55362;SDS011;41244;49.242;9.060;2022-09-12T16:58:21;7.40;;;6.70;;
55362;SDS011;41244;49.242;9.060;2022-09-12T17:00:47;15.82;;;14.13;;
55362;SDS011;41244;49.242;9.060;2022-09-12T17:03:13;8.25;;;4.50;;
55362;SDS011;41244;49.242;9.060;2022-09-12T17:05:40;8.60;;;3.95;;
55362;SDS011;41244;49.242;9.060;2022-09-12T17:08:07;4.30;;;3.80;;
55362;SDS011;41244;49.242;9.060;2022-09-12T17:10:33;4.43;;;3.80;;
55362;SDS011;41244;49.242;9.060;2022-09-12T17:13:00;4.20;;;3.80;;
55362;SDS011;41244;49.242;9.060;2022-09-12T17:15:26;7.25;;;4.78;;
55362;SDS011;41244;49.242;9.060;2022-09-12T17:17:52;7.80;;;3.92;;
55362;SDS011;41244;49.242;9.060;2022-09-12T17:20:18;7.72;;;6.93;;
55362;SDS011;41244;49.242;9.060;2022-09-12T17:22:44;9.90;;;7.53;;
55362;SDS011;41244;49.242;9.060;2022-09-12T17:25:09;7.57;;;5.32;;
55362;SDS011;41244;49.242;9.060;2022-09-12T17:27:35;4.78;;;4.03;;
55362;SDS011;41244;49.242;9.060;2022-09-12T17:30:01;4.68;;;4.20;;
55362;SDS011;41244;49.242;9.060;2022-09-12T17:32:28;8.45;;;4.57;;
55362;SDS011;41244;49.242;9.060;2022-09-12T17:34:54;4.40;;;4.00;;
55362;SDS011;41244;49.242;9.060;2022-09-12T17:37:19;6.22;;;4.55;;
55362;SDS011;41244;49.242;9.060;2022-09-12T17:39:45;4.50;;;4.10;;
55362;SDS011;41244;49.242;9.060;2022-09-12T17:42:11;5.45;;;4.95;;
55362;SDS011;41244;49.242;9.060;2022-09-12T17:44:37;4.75;;;4.35;;
55362;SDS011;41244;49.242;9.060;2022-09-12T17:47:03;4.90;;;4.13;;
55362;SDS011;41244;49.242;9.060;2022-09-12T17:49:29;5.93;;;4.80;;
55362;SDS011;41244;49.242;9.060;2022-09-12T17:51:55;7.22;;;4.90;;
55362;SDS011;41244;49.242;9.060;2022-09-12T17:54:21;5.75;;;3.95;;
55362;SDS011;41244;49.242;9.060;2022-09-12T17:56:48;13.18;;;10.65;;
55362;SDS011;41244;49.242;9.060;2022-09-12T17:59:16;8.02;;;7.22;;
55362;SDS011;41244;49.242;9.060;2022-09-12T18:01:44;5.32;;;4.82;;
55362;SDS011;41244;49.242;9.060;2022-09-12T18:04:28;6.05;;;5.45;;
55362;SDS011;41244;49.242;9.060;2022-09-12T18:06:55;5.78;;;4.10;;
55362;SDS011;41244;49.242;9.060;2022-09-12T18:09:21;5.63;;;4.50;;
55362;SDS011;41244;49.242;9.060;2022-09-12T18:11:49;7.22;;;6.35;;
55362;SDS011;41244;49.242;9.060;2022-09-12T18:14:16;5.60;;;5.10;;
55362;SDS011;41244;49.242;9.060;2022-09-12T18:16:42;9.18;;;6.32;;
55362;SDS011;41244;49.242;9.060;2022-09-12T18:19:08;5.43;;;4.35;;